sensor_id;sensor_type;location;lat;lon;timestamp;pressure;altitude;pressure_sealevel;temperature
80246;BMP280;69558;39.208;-77.226;2023-04-23T00:01:05;99551.34;;;20.68
80246;BMP280;69558;39.208;-77.226;2023-04-23T00:03:32;99546.88;;;20.68
80246;BMP280;69558;39.208;-77.226;2023-04-23T00:06:01;99498.66;;;20.68
80246;BMP280;69558;39.208;-77.226;2023-04-23T00:08:30;99491.00;;;20.66
80246;BMP280;69558;39.208;-77.226;2023-04-23T00:10:57;99494.03;;;20.63
80246;BMP280;69558;39.208;-77.226;2023-04-23T00:13:23;99517.56;;;20.65
80246;BMP280;69558;39.208;-77.226;2023-04-23T00:15:50;99528.28;;;20.63
80246;BMP280;69558;39.208;-77.226;2023-04-23T00:18:16;99526.72;;;20.62
80246;BMP280;69558;39.208;-77.226;2023-04-23T00:20:42;99549.19;;;20.65
80246;BMP280;69558;39.208;-77.226;2023-04-23T00:23:08;99560.72;;;20.64
80246;BMP280;69558;39.208;-77.226;2023-04-23T00:25:34;99544.72;;;20.65
80246;BMP280;69558;39.208;-77.226;2023-04-23T00:28:00;99557.09;;;20.65
80246;BMP280;69558;39.208;-77.226;2023-04-23T00:30:26;99576.34;;;20.65
80246;BMP280;69558;39.208;-77.226;2023-04-23T00:32:52;99587.88;;;20.64
80246;BMP280;69558;39.208;-77.226;2023-04-23T00:35:18;99605.59;;;20.57
80246;BMP280;69558;39.208;-77.226;2023-04-23T00:37:45;99640.81;;;20.63
80246;BMP280;69558;39.208;-77.226;2023-04-23T00:40:11;99653.75;;;20.64
80246;BMP280;69558;39.208;-77.226;2023-04-23T00:42:38;99646.75;;;20.58
80246;BMP280;69558;39.208;-77.226;2023-04-23T00:45:08;99636.97;;;20.59
80246;BMP280;69558;39.208;-77.226;2023-04-23T00:47:35;99629.88;;;20.59
80246;BMP280;69558;39.208;-77.226;2023-04-23T00:50:02;99616.69;;;20.59
80246;BMP280;69558;39.208;-77.226;2023-04-23T00:52:28;99614.06;;;20.59
80246;BMP280;69558;39.208;-77.226;2023-04-23T00:54:54;99593.81;;;20.60
80246;BMP280;69558;39.208;-77.226;2023-04-23T00:57:22;99586.72;;;20.60
80246;BMP280;69558;39.208;-77.226;2023-04-23T00:59:48;99592.00;;;20.60
80246;BMP280;69558;39.208;-77.226;2023-04-23T01:02:16;99583.28;;;20.60
80246;BMP280;69558;39.208;-77.226;2023-04-23T01:04:49;99592.81;;;20.61
80246;BMP280;69558;39.208;-77.226;2023-04-23T01:07:20;99605.16;;;20.60
80246;BMP280;69558;39.208;-77.226;2023-04-23T01:09:47;99628.88;;;20.60
80246;BMP280;69558;39.208;-77.226;2023-04-23T01:12:13;99633.16;;;20.55
80246;BMP280;69558;39.208;-77.226;2023-04-23T01:14:41;99644.53;;;20.55
80246;BMP280;69558;39.208;-77.226;2023-04-23T01:17:08;99656.47;;;20.58
80246;BMP280;69558;39.208;-77.226;2023-04-23T01:19:34;99649.59;;;20.57
80246;BMP280;69558;39.208;-77.226;2023-04-23T01:22:01;99652.66;;;20.54
80246;BMP280;69558;39.208;-77.226;2023-04-23T01:24:30;99659.31;;;20.56
80246;BMP280;69558;39.208;-77.226;2023-04-23T01:26:57;99667.22;;;20.56
80246;BMP280;69558;39.208;-77.226;2023-04-23T01:29:24;99677.75;;;20.56
80246;BMP280;69558;39.208;-77.226;2023-04-23T01:31:50;99670.03;;;20.55
80246;BMP280;69558;39.208;-77.226;2023-04-23T01:34:18;99675.72;;;20.58
80246;BMP280;69558;39.208;-77.226;2023-04-23T01:36:46;99686.47;;;20.57
80246;BMP280;69558;39.208;-77.226;2023-04-23T01:39:14;99670.72;;;20.50
80246;BMP280;69558;39.208;-77.226;2023-04-23T01:41:40;99662.97;;;20.55
80246;BMP280;69558;39.208;-77.226;2023-04-23T01:44:06;99645.19;;;20.51
80246;BMP280;69558;39.208;-77.226;2023-04-23T01:46:32;99640.28;;;20.54
80246;BMP280;69558;39.208;-77.226;2023-04-23T01:48:58;99642.72;;;20.56
80246;BMP280;69558;39.208;-77.226;2023-04-23T01:51:25;99636.63;;;20.55
80246;BMP280;69558;39.208;-77.226;2023-04-23T01:53:52;99617.00;;;20.51
80246;BMP280;69558;39.208;-77.226;2023-04-23T01:56:19;99606.69;;;20.50
80246;BMP280;69558;39.208;-77.226;2023-04-23T01:58:47;99616.56;;;20.54
80246;BMP280;69558;39.208;-77.226;2023-04-23T02:01:13;99621.03;;;20.54
80246;BMP280;69558;39.208;-77.226;2023-04-23T02:03:40;99613.34;;;20.52
80246;BMP280;69558;39.208;-77.226;2023-04-23T02:06:06;99609.09;;;20.51
80246;BMP280;69558;39.208;-77.226;2023-04-23T02:08:31;99606.31;;;20.46
80246;BMP280;69558;39.208;-77.226;2023-04-23T02:10:57;99625.94;;;20.50
80246;BMP280;69558;39.208;-77.226;2023-04-23T02:13:24;99637.88;;;20.53
80246;BMP280;69558;39.208;-77.226;2023-04-23T02:15:50;99637.06;;;20.52
80246;BMP280;69558;39.208;-77.226;2023-04-23T02:18:16;99639.09;;;20.50
80246;BMP280;69558;39.208;-77.226;2023-04-23T02:20:41;99638.09;;;20.51
80246;BMP280;69558;39.208;-77.226;2023-04-23T02:23:08;99635.06;;;20.48
80246;BMP280;69558;39.208;-77.226;2023-04-23T02:25:35;99639.09;;;20.50
80246;BMP280;69558;39.208;-77.226;2023-04-23T02:28:04;99615.13;;;20.33
80246;BMP280;69558;39.208;-77.226;2023-04-23T02:30:33;99639.09;;;20.50
80246;BMP280;69558;39.208;-77.226;2023-04-23T02:32:59;99651.47;;;20.50
80246;BMP280;69558;39.208;-77.226;2023-04-23T02:35:25;99642.41;;;20.45
80246;BMP280;69558;39.208;-77.226;2023-04-23T02:37:53;99647.69;;;20.45
80246;BMP280;69558;39.208;-77.226;2023-04-23T02:40:19;99647.69;;;20.45
80246;BMP280;69558;39.208;-77.226;2023-04-23T02:42:45;99651.47;;;20.50
80246;BMP280;69558;39.208;-77.226;2023-04-23T02:45:11;99652.28;;;20.50
80246;BMP280;69558;39.208;-77.226;2023-04-23T02:47:37;99651.69;;;20.48
80246;BMP280;69558;39.208;-77.226;2023-04-23T02:50:05;99650.66;;;20.49
80246;BMP280;69558;39.208;-77.226;2023-04-23T02:52:32;99654.31;;;20.48
80246;BMP280;69558;39.208;-77.226;2023-04-23T02:54:59;99642.41;;;20.45
80246;BMP280;69558;39.208;-77.226;2023-04-23T02:57:26;99650.66;;;20.49
80246;BMP280;69558;39.208;-77.226;2023-04-23T02:59:52;99655.94;;;20.49
80246;BMP280;69558;39.208;-77.226;2023-04-23T03:02:18;99648.25;;;20.48
80246;BMP280;69558;39.208;-77.226;2023-04-23T03:04:45;99656.16;;;20.48
80246;BMP280;69558;39.208;-77.226;2023-04-23T03:07:11;99651.69;;;20.48
80246;BMP280;69558;39.208;-77.226;2023-04-23T03:09:38;99649.25;;;20.46
80246;BMP280;69558;39.208;-77.226;2023-04-23T03:12:06;99645.03;;;20.45
80246;BMP280;69558;39.208;-77.226;2023-04-23T03:14:32;99646.25;;;20.43
80246;BMP280;69558;39.208;-77.226;2023-04-23T03:16:58;99625.44;;;20.35
80246;BMP280;69558;39.208;-77.226;2023-04-23T03:19:24;99642.97;;;20.48
80246;BMP280;69558;39.208;-77.226;2023-04-23T03:21:50;99639.53;;;20.47
80246;BMP280;69558;39.208;-77.226;2023-04-23T03:24:16;99627.59;;;20.44
80246;BMP280;69558;39.208;-77.226;2023-04-23T03:26:42;99638.72;;;20.46
80246;BMP280;69558;39.208;-77.226;2023-04-23T03:29:09;99629.06;;;20.40
80246;BMP280;69558;39.208;-77.226;2023-04-23T03:31:36;99627.00;;;20.42
80246;BMP280;69558;39.208;-77.226;2023-04-23T03:34:01;99626.78;;;20.44
80246;BMP280;69558;39.208;-77.226;2023-04-23T03:36:28;99604.19;;;20.36
80246;BMP280;69558;39.208;-77.226;2023-04-23T03:38:54;99617.28;;;20.43
80246;BMP280;69558;39.208;-77.226;2023-04-23T03:41:20;99619.91;;;20.43
80246;BMP280;69558;39.208;-77.226;2023-04-23T03:43:46;99611.47;;;20.34
80246;BMP280;69558;39.208;-77.226;2023-04-23T03:46:12;99614.06;;;20.41
80246;BMP280;69558;39.208;-77.226;2023-04-23T03:48:37;99601.94;;;20.33
80246;BMP280;69558;39.208;-77.226;2023-04-23T03:51:04;99621.19;;;20.40
80246;BMP280;69558;39.208;-77.226;2023-04-23T03:53:29;99628.84;;;20.42
80246;BMP280;69558;39.208;-77.226;2023-04-23T03:55:56;99627.25;;;20.41
80246;BMP280;69558;39.208;-77.226;2023-04-23T03:58:22;99626.44;;;20.40
80246;BMP280;69558;39.208;-77.226;2023-04-23T04:00:48;99629.47;;;20.37
80246;BMP280;69558;39.208;-77.226;2023-04-23T04:03:15;99634.75;;;20.37
80246;BMP280;69558;39.208;-77.226;2023-04-23T04:05:41;99637.78;;;20.41
80246;BMP280;69558;39.208;-77.226;2023-04-23T04:08:09;99636.97;;;20.40
80246;BMP280;69558;39.208;-77.226;2023-04-23T04:10:36;99623.81;;;20.34
80246;BMP280;69558;39.208;-77.226;2023-04-23T04:13:01;99611.31;;;20.29
80246;BMP280;69558;39.208;-77.226;2023-04-23T04:15:28;99620.00;;;20.36
80246;BMP280;69558;39.208;-77.226;2023-04-23T04:17:53;99619.75;;;20.38
80246;BMP280;69558;39.208;-77.226;2023-04-23T04:20:20;99624.22;;;20.37
80246;BMP280;69558;39.208;-77.226;2023-04-23T04:22:45;99622.25;;;20.33
80246;BMP280;69558;39.208;-77.226;2023-04-23T04:25:12;99615.56;;;20.30
80246;BMP280;69558;39.208;-77.226;2023-04-23T04:27:38;99621.81;;;20.36
80246;BMP280;69558;39.208;-77.226;2023-04-23T04:30:06;99624.44;;;20.36
80246;BMP280;69558;39.208;-77.226;2023-04-23T04:32:33;99615.72;;;20.35
80246;BMP280;69558;39.208;-77.226;2023-04-23T04:35:00;99613.06;;;20.35
80246;BMP280;69558;39.208;-77.226;2023-04-23T04:37:27;99604.59;;;20.33
80246;BMP280;69558;39.208;-77.226;2023-04-23T04:39:53;99601.94;;;20.33
80246;BMP280;69558;39.208;-77.226;2023-04-23T04:42:19;99598.75;;;20.31
80246;BMP280;69558;39.208;-77.226;2023-04-23T04:44:45;99603.81;;;20.33
80246;BMP280;69558;39.208;-77.226;2023-04-23T04:47:11;99608.47;;;20.31
80246;BMP280;69558;39.208;-77.226;2023-04-23T04:49:38;99609.28;;;20.31
80246;BMP280;69558;39.208;-77.226;2023-04-23T04:52:04;99621.66;;;20.31
80246;BMP280;69558;39.208;-77.226;2023-04-23T04:54:30;99624.88;;;20.33
80246;BMP280;69558;39.208;-77.226;2023-04-23T04:56:56;99627.72;;;20.31
80246;BMP280;69558;39.208;-77.226;2023-04-23T04:59:22;99626.91;;;20.31
80246;BMP280;69558;39.208;-77.226;2023-04-23T05:01:48;99636.44;;;20.32
80246;BMP280;69558;39.208;-77.226;2023-04-23T05:04:14;99643.31;;;20.33
80246;BMP280;69558;39.208;-77.226;2023-04-23T05:06:40;99640.09;;;20.31
80246;BMP280;69558;39.208;-77.226;2023-04-23T05:09:06;99637.63;;;20.29
80246;BMP280;69558;39.208;-77.226;2023-04-23T05:11:32;99642.50;;;20.32
80246;BMP280;69558;39.208;-77.226;2023-04-23T05:14:00;99639.25;;;20.30
80246;BMP280;69558;39.208;-77.226;2023-04-23T05:16:26;99659.34;;;20.31
80246;BMP280;69558;39.208;-77.226;2023-04-23T05:18:52;99665.59;;;20.30
80246;BMP280;69558;39.208;-77.226;2023-04-23T05:21:18;99649.78;;;20.30
80246;BMP280;69558;39.208;-77.226;2023-04-23T05:23:44;99658.72;;;20.29
80246;BMP280;69558;39.208;-77.226;2023-04-23T05:26:10;99655.50;;;20.27
80246;BMP280;69558;39.208;-77.226;2023-04-23T05:28:36;99646.63;;;20.22
80246;BMP280;69558;39.208;-77.226;2023-04-23T05:31:02;99648.41;;;20.28
80246;BMP280;69558;39.208;-77.226;2023-04-23T05:33:28;99636.34;;;20.13
80246;BMP280;69558;39.208;-77.226;2023-04-23T05:35:54;99654.72;;;20.27
80246;BMP280;69558;39.208;-77.226;2023-04-23T05:38:21;99642.19;;;20.22
80246;BMP280;69558;39.208;-77.226;2023-04-23T05:40:48;99654.25;;;20.30
80246;BMP280;69558;39.208;-77.226;2023-04-23T05:43:14;99655.06;;;20.30
80246;BMP280;69558;39.208;-77.226;2023-04-23T05:45:40;99652.06;;;20.27
80246;BMP280;69558;39.208;-77.226;2023-04-23T05:48:06;99635.94;;;20.17
80246;BMP280;69558;39.208;-77.226;2023-04-23T05:50:32;99650.63;;;20.31
80246;BMP280;69558;39.208;-77.226;2023-04-23T05:52:58;99646.34;;;20.30
80246;BMP280;69558;39.208;-77.226;2023-04-23T05:55:24;99639.50;;;20.29
80246;BMP280;69558;39.208;-77.226;2023-04-23T05:57:50;99638.91;;;20.27
80246;BMP280;69558;39.208;-77.226;2023-04-23T06:00:16;99639.50;;;20.29
80246;BMP280;69558;39.208;-77.226;2023-04-23T06:02:42;99641.31;;;20.28
80246;BMP280;69558;39.208;-77.226;2023-04-23T06:05:08;99639.50;;;20.29
80246;BMP280;69558;39.208;-77.226;2023-04-23T06:07:34;99633.44;;;20.28
80246;BMP280;69558;39.208;-77.226;2023-04-23T06:10:02;99636.88;;;20.29
80246;BMP280;69558;39.208;-77.226;2023-04-23T06:12:29;99637.25;;;20.26
80246;BMP280;69558;39.208;-77.226;2023-04-23T06:14:56;99638.91;;;20.27
80246;BMP280;69558;39.208;-77.226;2023-04-23T06:17:22;99631.81;;;20.27
80246;BMP280;69558;39.208;-77.226;2023-04-23T06:19:48;99624.16;;;20.19
80246;BMP280;69558;39.208;-77.226;2023-04-23T06:22:14;99624.53;;;20.23
80246;BMP280;69558;39.208;-77.226;2023-04-23T06:24:40;99634.44;;;20.27
80246;BMP280;69558;39.208;-77.226;2023-04-23T06:27:06;99633.81;;;20.25
80246;BMP280;69558;39.208;-77.226;2023-04-23T06:29:32;99638.28;;;20.25
80246;BMP280;69558;39.208;-77.226;2023-04-23T06:32:01;99615.50;;;20.12
80246;BMP280;69558;39.208;-77.226;2023-04-23T06:34:28;99629.00;;;20.22
80246;BMP280;69558;39.208;-77.226;2023-04-23T06:36:54;99611.25;;;20.11
80246;BMP280;69558;39.208;-77.226;2023-04-23T06:39:20;99621.94;;;20.16
80246;BMP280;69558;39.208;-77.226;2023-04-23T06:41:46;99635.09;;;20.23
80246;BMP280;69558;39.208;-77.226;2023-04-23T06:44:12;99640.34;;;20.23
80246;BMP280;69558;39.208;-77.226;2023-04-23T06:46:38;99641.97;;;20.24
80246;BMP280;69558;39.208;-77.226;2023-04-23T06:49:04;99641.38;;;20.22
80246;BMP280;69558;39.208;-77.226;2023-04-23T06:51:30;99641.38;;;20.22
80246;BMP280;69558;39.208;-77.226;2023-04-23T06:53:56;99640.34;;;20.23
80246;BMP280;69558;39.208;-77.226;2023-04-23T06:56:23;99621.00;;;20.10
80246;BMP280;69558;39.208;-77.226;2023-04-23T06:58:51;99633.91;;;20.19
80246;BMP280;69558;39.208;-77.226;2023-04-23T07:01:18;99635.72;;;20.18
80246;BMP280;69558;39.208;-77.226;2023-04-23T07:03:44;99631.81;;;20.21
80246;BMP280;69558;39.208;-77.226;2023-04-23T07:06:14;99618.81;;;20.07
80246;BMP280;69558;39.208;-77.226;2023-04-23T07:08:42;99638.56;;;20.17
80246;BMP280;69558;39.208;-77.226;2023-04-23T07:11:08;99641.00;;;20.18
80246;BMP280;69558;39.208;-77.226;2023-04-23T07:13:35;99643.84;;;20.17
80246;BMP280;69558;39.208;-77.226;2023-04-23T07:16:01;99635.09;;;20.16
80246;BMP280;69558;39.208;-77.226;2023-04-23T07:18:27;99637.38;;;20.12
80246;BMP280;69558;39.208;-77.226;2023-04-23T07:20:54;99634.31;;;20.16
80246;BMP280;69558;39.208;-77.226;2023-04-23T07:23:20;99633.72;;;20.13
80246;BMP280;69558;39.208;-77.226;2023-04-23T07:25:46;99631.91;;;20.14
80246;BMP280;69558;39.208;-77.226;2023-04-23T07:28:12;99621.44;;;20.07
80246;BMP280;69558;39.208;-77.226;2023-04-23T07:30:38;99635.34;;;20.15
80246;BMP280;69558;39.208;-77.226;2023-04-23T07:33:05;99627.28;;;20.09
80246;BMP280;69558;39.208;-77.226;2023-04-23T07:35:31;99635.56;;;20.13
80246;BMP280;69558;39.208;-77.226;2023-04-23T07:37:58;99629.47;;;20.12
80246;BMP280;69558;39.208;-77.226;2023-04-23T07:40:24;99608.75;;;19.98
80246;BMP280;69558;39.208;-77.226;2023-04-23T07:42:51;99627.06;;;20.11
80246;BMP280;69558;39.208;-77.226;2023-04-23T07:45:17;99611.31;;;20.04
80246;BMP280;69558;39.208;-77.226;2023-04-23T07:47:46;99622.63;;;20.11
80246;BMP280;69558;39.208;-77.226;2023-04-23T07:50:13;99621.19;;;20.09
80246;BMP280;69558;39.208;-77.226;2023-04-23T07:52:39;99613.56;;;20.01
80246;BMP280;69558;39.208;-77.226;2023-04-23T07:55:06;99607.94;;;19.97
80246;BMP280;69558;39.208;-77.226;2023-04-23T07:57:32;99637.00;;;20.09
80246;BMP280;69558;39.208;-77.226;2023-04-23T07:59:58;99633.38;;;20.03
80246;BMP280;69558;39.208;-77.226;2023-04-23T08:02:24;99643.50;;;20.06
80246;BMP280;69558;39.208;-77.226;2023-04-23T08:04:52;99647.16;;;20.05
80246;BMP280;69558;39.208;-77.226;2023-04-23T08:07:18;99630.78;;;19.97
80246;BMP280;69558;39.208;-77.226;2023-04-23T08:09:45;99647.94;;;20.06
80246;BMP280;69558;39.208;-77.226;2023-04-23T08:12:11;99649.59;;;20.07
80246;BMP280;69558;39.208;-77.226;2023-04-23T08:14:37;99645.78;;;20.03
80246;BMP280;69558;39.208;-77.226;2023-04-23T08:17:04;99656.66;;;20.06
80246;BMP280;69558;39.208;-77.226;2023-04-23T08:19:31;99661.31;;;20.04
80246;BMP280;69558;39.208;-77.226;2023-04-23T08:21:58;99658.31;;;20.01
80246;BMP280;69558;39.208;-77.226;2023-04-23T08:24:24;99670.25;;;20.03
80246;BMP280;69558;39.208;-77.226;2023-04-23T08:26:51;99667.00;;;20.01
80246;BMP280;69558;39.208;-77.226;2023-04-23T08:29:17;99678.38;;;20.02
80246;BMP280;69558;39.208;-77.226;2023-04-23T08:31:43;99675.38;;;19.98
80246;BMP280;69558;39.208;-77.226;2023-04-23T08:34:10;99680.38;;;20.00
80246;BMP280;69558;39.208;-77.226;2023-04-23T08:36:36;99683.81;;;20.00
80246;BMP280;69558;39.208;-77.226;2023-04-23T08:39:02;99684.06;;;19.99
80246;BMP280;69558;39.208;-77.226;2023-04-23T08:41:38;99694.34;;;20.00
80246;BMP280;69558;39.208;-77.226;2023-04-23T08:44:17;99683.66;;;19.95
80246;BMP280;69558;39.208;-77.226;2023-04-23T08:46:45;99690.53;;;19.96
80246;BMP280;69558;39.208;-77.226;2023-04-23T08:49:17;99692.16;;;19.97
80246;BMP280;69558;39.208;-77.226;2023-04-23T08:51:49;99695.78;;;19.96
80246;BMP280;69558;39.208;-77.226;2023-04-23T08:54:20;99685.88;;;19.92
80246;BMP280;69558;39.208;-77.226;2023-04-23T08:56:46;99683.25;;;19.92
80246;BMP280;69558;39.208;-77.226;2023-04-23T08:59:13;99689.16;;;19.94
80246;BMP280;69558;39.208;-77.226;2023-04-23T09:01:42;99689.38;;;19.92
80246;BMP280;69558;39.208;-77.226;2023-04-23T09:04:08;99696.25;;;19.93
80246;BMP280;69558;39.208;-77.226;2023-04-23T09:06:35;99694.00;;;19.90
80246;BMP280;69558;39.208;-77.226;2023-04-23T09:09:02;99704.13;;;19.93
80246;BMP280;69558;39.208;-77.226;2023-04-23T09:11:29;99705.97;;;19.93
80246;BMP280;69558;39.208;-77.226;2023-04-23T09:13:56;99699.25;;;19.90
80246;BMP280;69558;39.208;-77.226;2023-04-23T09:16:22;99705.16;;;19.92
80246;BMP280;69558;39.208;-77.226;2023-04-23T09:18:48;99696.47;;;19.85
80246;BMP280;69558;39.208;-77.226;2023-04-23T09:21:16;99714.03;;;19.91
80246;BMP280;69558;39.208;-77.226;2023-04-23T09:23:42;99713.69;;;19.88
80246;BMP280;69558;39.208;-77.226;2023-04-23T09:26:08;99710.88;;;19.83
80246;BMP280;69558;39.208;-77.226;2023-04-23T09:28:35;99713.47;;;19.89
80246;BMP280;69558;39.208;-77.226;2023-04-23T09:31:04;99718.50;;;19.91
80246;BMP280;69558;39.208;-77.226;2023-04-23T09:33:36;99720.31;;;19.90
80246;BMP280;69558;39.208;-77.226;2023-04-23T09:36:09;99723.75;;;19.91
80246;BMP280;69558;39.208;-77.226;2023-04-23T09:38:41;99720.97;;;19.86
80246;BMP280;69558;39.208;-77.226;2023-04-23T09:41:24;99729.25;;;19.89
80246;BMP280;69558;39.208;-77.226;2023-04-23T09:43:53;99727.81;;;19.87
80246;BMP280;69558;39.208;-77.226;2023-04-23T09:46:39;99736.53;;;19.87
80246;BMP280;69558;39.208;-77.226;2023-04-23T09:49:07;99732.91;;;19.82
80246;BMP280;69558;39.208;-77.226;2023-04-23T09:51:38;99740.63;;;19.83
80246;BMP280;69558;39.208;-77.226;2023-04-23T09:54:16;99734.34;;;19.84
80246;BMP280;69558;39.208;-77.226;2023-04-23T09:56:53;99737.19;;;19.83
80246;BMP280;69558;39.208;-77.226;2023-04-23T09:59:26;99734.97;;;19.79
80246;BMP280;69558;39.208;-77.226;2023-04-23T10:01:53;99745.28;;;19.81
80246;BMP280;69558;39.208;-77.226;2023-04-23T10:04:23;99751.31;;;19.82
80246;BMP280;69558;39.208;-77.226;2023-04-23T10:06:54;99752.75;;;19.77
80246;BMP280;69558;39.208;-77.226;2023-04-23T10:09:21;99742.88;;;19.73
80246;BMP280;69558;39.208;-77.226;2023-04-23T10:11:54;99751.00;;;19.71
80246;BMP280;69558;39.208;-77.226;2023-04-23T10:14:21;99766.97;;;19.76
80246;BMP280;69558;39.208;-77.226;2023-04-23T10:17:02;99763.53;;;19.76
80246;BMP280;69558;39.208;-77.226;2023-04-23T10:19:28;99770.59;;;19.75
80246;BMP280;69558;39.208;-77.226;2023-04-23T10:22:00;99764.94;;;19.72
80246;BMP280;69558;39.208;-77.226;2023-04-23T10:24:34;99778.72;;;19.74
80246;BMP280;69558;39.208;-77.226;2023-04-23T10:27:02;99778.09;;;19.72
80246;BMP280;69558;39.208;-77.226;2023-04-23T10:29:31;99784.78;;;19.74
80246;BMP280;69558;39.208;-77.226;2023-04-23T10:32:00;99790.66;;;19.70
80246;BMP280;69558;39.208;-77.226;2023-04-23T10:34:27;99793.69;;;19.67
80246;BMP280;69558;39.208;-77.226;2023-04-23T10:36:58;99788.88;;;19.64
80246;BMP280;69558;39.208;-77.226;2023-04-23T10:39:33;99807.06;;;19.72
80246;BMP280;69558;39.208;-77.226;2023-04-23T10:42:00;99805.84;;;19.68
80246;BMP280;69558;39.208;-77.226;2023-04-23T10:44:37;99818.38;;;19.72
80246;BMP280;69558;39.208;-77.226;2023-04-23T10:47:05;99813.53;;;19.69
80246;BMP280;69558;39.208;-77.226;2023-04-23T10:49:33;99823.88;;;19.64
80246;BMP280;69558;39.208;-77.226;2023-04-23T10:52:07;99823.88;;;19.64
80246;BMP280;69558;39.208;-77.226;2023-04-23T10:54:34;99826.50;;;19.64
80246;BMP280;69558;39.208;-77.226;2023-04-23T10:57:04;99818.59;;;19.64
80246;BMP280;69558;39.208;-77.226;2023-04-23T10:59:32;99831.56;;;19.66
80246;BMP280;69558;39.208;-77.226;2023-04-23T11:02:18;99836.81;;;19.66
80246;BMP280;69558;39.208;-77.226;2023-04-23T11:04:46;99843.09;;;19.65
80246;BMP280;69558;39.208;-77.226;2023-04-23T11:07:13;99850.38;;;19.63
80246;BMP280;69558;39.208;-77.226;2023-04-23T11:09:41;99846.75;;;19.64
80246;BMP280;69558;39.208;-77.226;2023-04-23T11:14:52;99845.13;;;19.56
80246;BMP280;69558;39.208;-77.226;2023-04-23T11:22:52;99880.34;;;19.62
80246;BMP280;69558;39.208;-77.226;2023-04-23T11:25:24;99886.59;;;19.61
80246;BMP280;69558;39.208;-77.226;2023-04-23T11:27:53;99898.16;;;19.60
80246;BMP280;69558;39.208;-77.226;2023-04-23T11:30:24;99896.31;;;19.60
80246;BMP280;69558;39.208;-77.226;2023-04-23T11:32:53;99901.81;;;19.59
80246;BMP280;69558;39.208;-77.226;2023-04-23T11:35:23;99906.03;;;19.60
80246;BMP280;69558;39.208;-77.226;2023-04-23T11:37:55;99901.81;;;19.59
80246;BMP280;69558;39.208;-77.226;2023-04-23T11:40:21;99877.69;;;19.42
80246;BMP280;69558;39.208;-77.226;2023-04-23T11:42:52;99908.66;;;19.60
80246;BMP280;69558;39.208;-77.226;2023-04-23T11:45:27;99911.31;;;19.60
80246;BMP280;69558;39.208;-77.226;2023-04-23T11:47:58;99909.06;;;19.57
80246;BMP280;69558;39.208;-77.226;2023-04-23T11:50:27;99908.66;;;19.60
80246;BMP280;69558;39.208;-77.226;2023-04-23T11:52:55;99910.53;;;19.59
80246;BMP280;69558;39.208;-77.226;2023-04-23T11:55:22;99912.72;;;19.56
80246;BMP280;69558;39.208;-77.226;2023-04-23T11:57:49;99913.16;;;19.59
80246;BMP280;69558;39.208;-77.226;2023-04-23T12:00:19;99913.94;;;19.60
80246;BMP280;69558;39.208;-77.226;2023-04-23T12:03:02;99910.28;;;19.61
80246;BMP280;69558;39.208;-77.226;2023-04-23T12:08:08;99912.09;;;19.60
80246;BMP280;69558;39.208;-77.226;2023-04-23T12:10:49;99888.44;;;19.47
80246;BMP280;69558;39.208;-77.226;2023-04-23T12:13:23;99905.44;;;19.58
80246;BMP280;69558;39.208;-77.226;2023-04-23T12:16:01;99908.88;;;19.58
80246;BMP280;69558;39.208;-77.226;2023-04-23T12:18:33;99911.13;;;19.55
80246;BMP280;69558;39.208;-77.226;2023-04-23T12:21:13;99920.41;;;19.57
80246;BMP280;69558;39.208;-77.226;2023-04-23T12:23:40;99927.69;;;19.55
80246;BMP280;69558;39.208;-77.226;2023-04-23T12:26:11;99922.66;;;19.54
80246;BMP280;69558;39.208;-77.226;2023-04-23T12:28:55;99922.03;;;19.58
80246;BMP280;69558;39.208;-77.226;2023-04-23T12:31:25;99914.94;;;19.52
80246;BMP280;69558;39.208;-77.226;2023-04-23T12:34:06;99929.31;;;19.56
80246;BMP280;69558;39.208;-77.226;2023-04-23T12:36:33;99925.88;;;19.56
80246;BMP280;69558;39.208;-77.226;2023-04-23T12:41:46;99925.88;;;19.56
80246;BMP280;69558;39.208;-77.226;2023-04-23T12:44:12;99931.94;;;19.56
80246;BMP280;69558;39.208;-77.226;2023-04-23T12:46:38;99928.28;;;19.57
80246;BMP280;69558;39.208;-77.226;2023-04-23T12:49:04;99929.09;;;19.58
80246;BMP280;69558;39.208;-77.226;2023-04-23T12:51:30;99926.47;;;19.58
80246;BMP280;69558;39.208;-77.226;2023-04-23T12:53:56;99927.28;;;19.58
80246;BMP280;69558;39.208;-77.226;2023-04-23T12:56:22;99931.56;;;19.59
80246;BMP280;69558;39.208;-77.226;2023-04-23T12:58:48;99931.75;;;19.58
80246;BMP280;69558;39.208;-77.226;2023-04-23T13:01:14;99915.56;;;19.54
80246;BMP280;69558;39.208;-77.226;2023-04-23T13:03:40;99926.47;;;19.58
80246;BMP280;69558;39.208;-77.226;2023-04-23T13:06:06;99922.66;;;19.54
80246;BMP280;69558;39.208;-77.226;2023-04-23T13:08:33;99920.19;;;19.52
80246;BMP280;69558;39.208;-77.226;2023-04-23T13:10:59;99927.50;;;19.57
80246;BMP280;69558;39.208;-77.226;2023-04-23T13:13:26;99938.84;;;19.51
80246;BMP280;69558;39.208;-77.226;2023-04-23T13:15:52;99944.09;;;19.51
80246;BMP280;69558;39.208;-77.226;2023-04-23T13:18:19;99942.09;;;19.46
80246;BMP280;69558;39.208;-77.226;2023-04-23T13:20:48;99950.97;;;19.52
80246;BMP280;69558;39.208;-77.226;2023-04-23T13:25:59;99944.69;;;19.53
80246;BMP280;69558;39.208;-77.226;2023-04-23T13:28:25;99949.78;;;19.54
80246;BMP280;69558;39.208;-77.226;2023-04-23T13:30:52;99942.69;;;19.55
80246;BMP280;69558;39.208;-77.226;2023-04-23T13:33:18;99943.47;;;19.55
80246;BMP280;69558;39.208;-77.226;2023-04-23T13:35:46;99944.09;;;19.57
80246;BMP280;69558;39.208;-77.226;2023-04-23T13:38:12;99933.78;;;19.49
80246;BMP280;69558;39.208;-77.226;2023-04-23T13:40:38;99953.59;;;19.58
80246;BMP280;69558;39.208;-77.226;2023-04-23T13:43:04;99958.03;;;19.58
80246;BMP280;69558;39.208;-77.226;2023-04-23T13:45:30;99956.63;;;19.55
80246;BMP280;69558;39.208;-77.226;2023-04-23T13:47:56;99958.84;;;19.58
80246;BMP280;69558;39.208;-77.226;2023-04-23T13:50:24;99957.88;;;19.59
80246;BMP280;69558;39.208;-77.226;2023-04-23T13:52:50;99951.97;;;19.57
80246;BMP280;69558;39.208;-77.226;2023-04-23T13:55:16;99961.91;;;19.62
80246;BMP280;69558;39.208;-77.226;2023-04-23T13:57:42;99962.72;;;19.62
80246;BMP280;69558;39.208;-77.226;2023-04-23T14:00:09;99967.16;;;19.62
80246;BMP280;69558;39.208;-77.226;2023-04-23T14:02:37;99956.22;;;19.58